createdAt,value
2024-03-26T00:00:39.631Z,96120.11
2024-03-26T00:03:27.646Z,96124.85
2024-03-26T00:05:55.867Z,96126.91
2024-03-26T00:08:24.480Z,96127.71
2024-03-26T00:10:52.774Z,96125.92
2024-03-26T00:13:21.077Z,96126.58
2024-03-26T00:15:49.269Z,96127.36
2024-03-26T00:18:17.368Z,96134.33
2024-03-26T00:20:45.541Z,96135.23
2024-03-26T00:23:14.774Z,96138.92
2024-03-26T00:25:43.207Z,96143.35
2024-03-26T00:28:11.472Z,96146.52
2024-03-26T00:30:39.674Z,96145.40
2024-03-26T00:33:07.917Z,96149.02
2024-03-26T00:35:36.595Z,96149.82
2024-03-26T00:38:05.304Z,96147.69
2024-03-26T00:40:33.784Z,96146.14
2024-03-26T00:43:02.052Z,96151.19
2024-03-26T00:45:38.011Z,96148.02
2024-03-26T00:48:06.399Z,96147.39
2024-03-26T00:50:34.544Z,96142.42
2024-03-26T00:53:03.051Z,96144.02
2024-03-26T00:55:31.117Z,96147.89
2024-03-26T00:57:59.620Z,96150.69
2024-03-26T01:00:28.072Z,96145.23
2024-03-26T01:02:56.372Z,96142.79
2024-03-26T01:05:24.457Z,96146.14
2024-03-26T01:07:52.694Z,96146.57
2024-03-26T01:10:21.065Z,96143.66
2024-03-26T01:12:49.175Z,96145.04
2024-03-26T01:15:17.836Z,96151.27
2024-03-26T01:17:46.539Z,96150.16
2024-03-26T01:20:14.878Z,96153.92
2024-03-26T01:22:43.261Z,96148.63
2024-03-26T01:25:11.307Z,96153.89
2024-03-26T01:27:39.755Z,96149.85
2024-03-26T01:30:08.704Z,96157.85
2024-03-26T01:32:37.171Z,96157.83
2024-03-26T01:35:06.933Z,96155.22
2024-03-26T01:37:37.675Z,96153.94
2024-03-26T01:40:09.581Z,96156.98
2024-03-26T01:42:38.737Z,96161.02
2024-03-26T01:45:08.796Z,96163.69
2024-03-26T01:47:39.362Z,96167.23
2024-03-26T01:50:12.273Z,96168.77
2024-03-26T01:52:40.882Z,96170.15
2024-03-26T01:55:09.609Z,96170.27
2024-03-26T01:57:38.264Z,96173.52
2024-03-26T02:00:07.962Z,96176.27
2024-03-26T02:02:44.113Z,96176.38
2024-03-26T02:05:12.857Z,96179.95
2024-03-26T02:07:41.073Z,96170.70
2024-03-26T02:10:09.673Z,96175.14
2024-03-26T02:12:37.853Z,96175.70
2024-03-26T02:15:06.861Z,96183.70
2024-03-26T02:17:35.270Z,96190.96
2024-03-26T02:20:05.016Z,96193.29
2024-03-26T02:22:33.149Z,96193.98
2024-03-26T02:25:01.365Z,96196.94
2024-03-26T02:27:29.675Z,96199.29
2024-03-26T02:29:58.223Z,96199.55
2024-03-26T02:32:26.487Z,96200.62
2024-03-26T02:35:10.944Z,96208.64
2024-03-26T02:37:39.146Z,96206.07
2024-03-26T02:40:08.163Z,96207.41
2024-03-26T02:42:36.574Z,96208.33
2024-03-26T02:45:05.339Z,96212.52
2024-03-26T02:47:33.826Z,96217.34
2024-03-26T02:50:02.358Z,96215.88
2024-03-26T02:52:30.848Z,96220.34
2024-03-26T02:55:01.852Z,96218.89
2024-03-26T02:57:30.276Z,96212.64
2024-03-26T02:59:58.434Z,96208.33
2024-03-26T03:02:26.712Z,96217.05
2024-03-26T03:04:54.984Z,96220.22
2024-03-26T03:07:26.159Z,96217.44
2024-03-26T03:09:54.299Z,96213.82
2024-03-26T03:12:22.459Z,96218.42
2024-03-26T03:14:50.864Z,96221.23
2024-03-26T03:17:19.074Z,96222.52
2024-03-26T03:19:47.331Z,96225.52
2024-03-26T03:22:15.679Z,96223.79
2024-03-26T03:24:43.957Z,96228.22
2024-03-26T03:27:12.299Z,96227.08
2024-03-26T03:29:40.600Z,96226.38
2024-03-26T03:32:08.956Z,96227.02
2024-03-26T03:34:37.414Z,96230.58
2024-03-26T03:37:05.646Z,96232.44
2024-03-26T03:39:33.986Z,96230.23
2024-03-26T03:42:02.284Z,96230.90
2024-03-26T03:44:36.431Z,96235.90
2024-03-26T03:47:05.379Z,96242.77
2024-03-26T03:49:36.533Z,96245.96
2024-03-26T03:52:05.418Z,96250.27
2024-03-26T03:54:33.720Z,96253.30
2024-03-26T03:57:02.156Z,96258.73
2024-03-26T03:59:32.538Z,96260.50
2024-03-26T04:02:01.025Z,96261.10
2024-03-26T04:04:29.393Z,96261.01
2024-03-26T04:06:57.563Z,96262.54
2024-03-26T04:09:26.536Z,96260.01
2024-03-26T04:11:55.445Z,96259.79
2024-03-26T04:14:23.930Z,96259.08
2024-03-26T04:16:52.531Z,96262.36
2024-03-26T04:19:20.779Z,96262.32
2024-03-26T04:21:49.033Z,96263.77
2024-03-26T04:24:17.336Z,96268.46
2024-03-26T04:26:45.807Z,96274.23
2024-03-26T04:29:14.226Z,96272.95
2024-03-26T04:31:42.487Z,96278.20
2024-03-26T04:34:13.318Z,96279.77
2024-03-26T04:36:44.796Z,96286.43
2024-03-26T04:39:16.733Z,96295.27
2024-03-26T04:41:45.418Z,96304.04
2024-03-26T04:44:13.796Z,96306.47
2024-03-26T04:46:42.216Z,96308.05
2024-03-26T04:49:10.538Z,96306.36
2024-03-26T04:51:38.700Z,96304.84
2024-03-26T04:54:07.740Z,96302.02
2024-03-26T04:56:35.866Z,96307.61
2024-03-26T04:59:04.080Z,96313.85
2024-03-26T05:01:32.334Z,96313.09
2024-03-26T05:04:00.802Z,96312.64
2024-03-26T05:06:29.295Z,96312.48
2024-03-26T05:08:57.631Z,96317.97
2024-03-26T05:11:25.924Z,96318.08
2024-03-26T05:13:57.391Z,96319.38
2024-03-26T05:16:25.862Z,96325.90
2024-03-26T05:18:54.021Z,96329.13
2024-03-26T05:21:24.847Z,96326.02
2024-03-26T05:23:53.239Z,96323.41
2024-03-26T05:26:21.587Z,96324.65
2024-03-26T05:28:51.693Z,96327.86
2024-03-26T05:31:21.669Z,96331.66
2024-03-26T05:33:50.267Z,96332.81
2024-03-26T05:36:18.891Z,96332.38
2024-03-26T05:38:47.645Z,96332.31
2024-03-26T05:41:16.286Z,96335.60
2024-03-26T05:43:47.017Z,96340.02
2024-03-26T05:46:15.539Z,96342.48
2024-03-26T05:48:43.569Z,96344.90
2024-03-26T05:51:13.997Z,96341.00
2024-03-26T05:53:47.970Z,96348.60
2024-03-26T05:56:16.537Z,96357.44
2024-03-26T05:58:45.332Z,96360.88
2024-03-26T06:01:14.235Z,96364.48
2024-03-26T06:03:45.402Z,96369.25
2024-03-26T06:06:16.422Z,96374.80
2024-03-26T06:08:44.732Z,96370.39
2024-03-26T06:11:12.930Z,96374.05
2024-03-26T06:13:41.283Z,96380.02
2024-03-26T06:16:15.306Z,96381.85
2024-03-26T06:18:43.700Z,96390.02
2024-03-26T06:21:12.159Z,96387.64
2024-03-26T06:23:40.839Z,96390.10
2024-03-26T06:26:14.795Z,96390.98
2024-03-26T06:28:43.159Z,96389.80
2024-03-26T06:31:11.435Z,96393.00
2024-03-26T06:33:39.842Z,96398.11
2024-03-26T06:36:09.294Z,96405.63
2024-03-26T06:38:47.664Z,96405.98
2024-03-26T06:41:16.046Z,96410.17
2024-03-26T06:43:44.469Z,96410.02
2024-03-26T06:46:12.840Z,96411.73
2024-03-26T06:48:41.368Z,96409.60
2024-03-26T06:51:09.545Z,96405.50
2024-03-26T06:53:38.673Z,96408.37
2024-03-26T06:56:07.263Z,96410.34
2024-03-26T06:58:39.538Z,96413.98
2024-03-26T07:01:07.753Z,96414.58
2024-03-26T07:03:35.933Z,96414.04
2024-03-26T07:06:05.446Z,96413.63
2024-03-26T07:08:33.786Z,96407.96
2024-03-26T07:11:04.279Z,96405.77
2024-03-26T07:13:32.248Z,96399.05
2024-03-26T07:16:00.798Z,96397.63
2024-03-26T07:18:29.124Z,96397.81
2024-03-26T07:21:01.323Z,96396.48
2024-03-26T07:23:29.769Z,96400.80
2024-03-26T07:25:57.855Z,96403.52
2024-03-26T07:28:26.217Z,96399.50
2024-03-26T07:30:54.293Z,96398.77
2024-03-26T07:33:22.632Z,96393.19
2024-03-26T07:35:50.995Z,96389.38
2024-03-26T07:38:19.445Z,96384.20
2024-03-26T07:40:47.817Z,96384.87
2024-03-26T07:43:23.617Z,96383.79
2024-03-26T07:45:52.512Z,96375.80
2024-03-26T07:48:22.378Z,96368.63
2024-03-26T07:50:51.046Z,96365.60
2024-03-26T07:53:19.495Z,96360.98
2024-03-26T07:55:50.052Z,96363.27
2024-03-26T07:58:18.340Z,96366.88
2024-03-26T08:00:46.659Z,96370.80
2024-03-26T08:03:14.866Z,96369.80
2024-03-26T08:05:42.964Z,96367.73
2024-03-26T08:08:11.358Z,96360.17
2024-03-26T08:10:41.483Z,96363.52
2024-03-26T08:13:13.020Z,96368.09
2024-03-26T08:15:41.400Z,96365.39
2024-03-26T08:18:09.664Z,96360.86
2024-03-26T08:20:41.173Z,96362.16
2024-03-26T08:23:09.255Z,96362.71
2024-03-26T08:25:37.681Z,96359.77
2024-03-26T08:28:06.248Z,96362.08
2024-03-26T08:30:34.330Z,96355.48
2024-03-26T08:33:02.716Z,96363.23
2024-03-26T08:35:30.997Z,96363.33
2024-03-26T08:37:59.205Z,96363.33
2024-03-26T08:40:27.209Z,96363.88
2024-03-26T08:42:55.393Z,96354.92
2024-03-26T08:45:24.247Z,96357.86
2024-03-26T08:47:52.999Z,96354.80
2024-03-26T08:50:21.111Z,96350.94
2024-03-26T08:52:49.266Z,96353.87
2024-03-26T08:55:17.401Z,96352.63
2024-03-26T08:57:46.114Z,96350.77
2024-03-26T09:00:14.925Z,96346.63
2024-03-26T09:02:43.209Z,96343.54
2024-03-26T09:05:11.547Z,96341.59
2024-03-26T09:07:39.808Z,96336.35
2024-03-26T09:10:08.494Z,96336.92
2024-03-26T09:12:37.380Z,96332.58
2024-03-26T09:15:06.068Z,96337.55
2024-03-26T09:17:34.664Z,96337.10
2024-03-26T09:20:02.789Z,96336.21
2024-03-26T09:22:30.804Z,96332.68
2024-03-26T09:24:58.981Z,96325.28
2024-03-26T09:27:27.328Z,96320.73
2024-03-26T09:29:56.066Z,96320.26
2024-03-26T09:32:24.298Z,96318.27
2024-03-26T09:34:52.444Z,96314.19
2024-03-26T09:37:20.889Z,96314.51
2024-03-26T09:39:49.340Z,96319.66
2024-03-26T09:42:20.809Z,96318.54
2024-03-26T09:44:58.414Z,96312.11
2024-03-26T09:47:34.228Z,96308.15
2024-03-26T09:50:06.131Z,96305.38
2024-03-26T09:52:39.293Z,96295.94
2024-03-26T09:55:09.090Z,96295.54
2024-03-26T09:57:37.413Z,96293.33
2024-03-26T10:00:08.516Z,96294.25
2024-03-26T10:02:38.152Z,96287.88
2024-03-26T10:05:09.533Z,96289.37
2024-03-26T10:07:37.820Z,96289.36
2024-03-26T10:10:06.871Z,96290.41
2024-03-26T10:12:34.965Z,96295.39
2024-03-26T10:15:04.714Z,96293.66
2024-03-26T10:17:34.144Z,96293.59
2024-03-26T10:20:03.369Z,96293.61
2024-03-26T10:22:31.864Z,96300.24
2024-03-26T10:25:00.054Z,96299.23
2024-03-26T10:27:28.161Z,96296.73
2024-03-26T10:29:56.517Z,96291.95
2024-03-26T10:32:26.469Z,96291.98
2024-03-26T10:35:03.951Z,96293.95
2024-03-26T10:37:34.123Z,96298.95
2024-03-26T10:40:17.571Z,96296.50
2024-03-26T10:42:52.172Z,96290.30
2024-03-26T10:45:32.576Z,96291.55
2024-03-26T10:48:10.864Z,96290.43
2024-03-26T10:50:42.585Z,96281.52
2024-03-26T10:53:12.378Z,96281.79
2024-03-26T10:55:43.157Z,96283.38
2024-03-26T10:58:11.286Z,96282.77
2024-03-26T11:00:41.506Z,96279.98
2024-03-26T11:03:11.339Z,96273.23
2024-03-26T11:05:39.934Z,96265.95
2024-03-26T11:08:18.361Z,96262.25
2024-03-26T11:11:01.529Z,96263.83
2024-03-26T11:13:31.667Z,96261.43
2024-03-26T11:16:00.505Z,96252.44
2024-03-26T11:18:30.177Z,96245.34
2024-03-26T11:21:09.221Z,96239.96
2024-03-26T11:23:38.828Z,96236.77
2024-03-26T11:26:06.921Z,96240.95
2024-03-26T11:28:37.325Z,96238.80
2024-03-26T11:31:05.519Z,96240.16
2024-03-26T11:33:33.618Z,96237.59
2024-03-26T11:36:05.076Z,96231.63
2024-03-26T11:38:34.176Z,96222.75
2024-03-26T11:41:04.380Z,96223.92
2024-03-26T11:43:36.541Z,96218.86
2024-03-26T11:46:05.375Z,96212.77
2024-03-26T11:48:33.493Z,96213.08
2024-03-26T11:51:01.660Z,96198.20
2024-03-26T11:53:29.920Z,96190.92
2024-03-26T11:55:58.015Z,96191.66
2024-03-26T11:58:29.144Z,96194.70
2024-03-26T12:00:57.418Z,96191.19
2024-03-26T12:03:25.714Z,96185.41
2024-03-26T12:05:54.717Z,96185.34
2024-03-26T12:08:22.958Z,96182.94
2024-03-26T12:10:51.053Z,96182.53
2024-03-26T12:13:19.850Z,96181.75
2024-03-26T12:15:47.760Z,96177.50
2024-03-26T12:18:16.344Z,96171.41
2024-03-26T12:20:44.462Z,96167.86
2024-03-26T12:23:12.513Z,96163.58
2024-03-26T12:25:45.169Z,96165.02
2024-03-26T12:28:13.851Z,96164.16
2024-03-26T12:30:42.352Z,96162.52
2024-03-26T12:33:10.409Z,96154.81
2024-03-26T12:35:38.691Z,96155.16
2024-03-26T12:38:08.075Z,96157.35
2024-03-26T12:40:38.533Z,96153.61
2024-03-26T12:43:07.532Z,96145.09
2024-03-26T12:45:37.984Z,96138.66
2024-03-26T12:48:06.424Z,96140.39
2024-03-26T12:50:35.027Z,96138.27
2024-03-26T12:53:03.424Z,96136.45
2024-03-26T12:55:31.421Z,96124.15
2024-03-26T12:57:59.545Z,96118.70
2024-03-26T13:00:27.782Z,96123.23
2024-03-26T13:02:55.713Z,96127.42
2024-03-26T13:05:24.824Z,96123.91
2024-03-26T13:07:56.143Z,96117.49
2024-03-26T13:10:24.948Z,96117.52
2024-03-26T13:12:53.181Z,96107.31
2024-03-26T13:15:21.708Z,96101.31
2024-03-26T13:17:49.747Z,96098.98
2024-03-26T13:20:17.943Z,96087.96
2024-03-26T13:22:48.331Z,96089.44
2024-03-26T13:25:18.523Z,96081.98
2024-03-26T13:27:46.365Z,96075.98
2024-03-26T13:30:14.614Z,96077.29
2024-03-26T13:32:42.763Z,96068.01
2024-03-26T13:35:10.734Z,96065.64
2024-03-26T13:37:39.745Z,96059.38
2024-03-26T13:40:23.463Z,96057.12
2024-03-26T13:42:57.267Z,96048.80
2024-03-26T13:45:25.606Z,96044.20
2024-03-26T13:47:54.124Z,96040.15
2024-03-26T13:50:22.276Z,96037.61
2024-03-26T13:52:50.548Z,96030.79
2024-03-26T13:55:19.191Z,96025.18
2024-03-26T13:57:47.297Z,96016.25
2024-03-26T14:00:16.072Z,96011.00
2024-03-26T14:02:44.108Z,96005.98
2024-03-26T14:05:12.819Z,96000.64
2024-03-26T14:07:41.036Z,95991.91
2024-03-26T14:10:09.746Z,95982.43
2024-03-26T14:12:37.756Z,95974.27
2024-03-26T14:15:06.339Z,95961.61
2024-03-26T14:17:34.365Z,95949.40
2024-03-26T14:20:03.817Z,95947.41
2024-03-26T14:22:31.930Z,95938.13
2024-03-26T14:25:00.026Z,95935.77
2024-03-26T14:27:28.460Z,95932.81
2024-03-26T14:29:56.850Z,95932.75
2024-03-26T14:32:24.920Z,95931.28
2024-03-26T14:34:53.071Z,95937.06
2024-03-26T14:37:21.213Z,95945.80
2024-03-26T14:39:49.967Z,95948.67
2024-03-26T14:42:18.195Z,95950.05
2024-03-26T14:44:47.433Z,95948.60
2024-03-26T14:47:15.410Z,95953.84
2024-03-26T14:49:43.421Z,95961.79
2024-03-26T14:52:11.592Z,95966.98
2024-03-26T14:54:39.751Z,95974.23
2024-03-26T14:57:08.729Z,95969.52
2024-03-26T14:59:36.821Z,95967.60
2024-03-26T15:02:07.775Z,95964.50
2024-03-26T15:04:37.550Z,95961.49
2024-03-26T15:07:07.958Z,95957.92
2024-03-26T15:09:36.170Z,95957.71
2024-03-26T15:12:04.610Z,95966.63
2024-03-26T15:14:32.774Z,95974.09
2024-03-26T15:17:00.799Z,95975.31
2024-03-26T15:19:29.152Z,95978.98
2024-03-26T15:21:57.396Z,95979.83
2024-03-26T15:24:25.741Z,95976.09
2024-03-26T15:27:12.408Z,95969.61
2024-03-26T15:29:59.776Z,95961.40
2024-03-26T15:32:27.997Z,95956.44
2024-03-26T15:34:56.729Z,95949.94
2024-03-26T15:37:24.985Z,95940.70
2024-03-26T15:39:53.038Z,95939.53
2024-03-26T15:42:21.121Z,95940.85
2024-03-26T15:44:49.326Z,95942.34
2024-03-26T15:47:18.351Z,95939.93
2024-03-26T15:49:46.827Z,95938.05
2024-03-26T15:52:15.066Z,95934.63
2024-03-26T15:54:43.448Z,95936.86
2024-03-26T15:57:11.570Z,95931.02
2024-03-26T15:59:39.772Z,95933.02
2024-03-26T16:02:07.916Z,95935.34
2024-03-26T16:04:36.247Z,95943.33
2024-03-26T16:07:04.641Z,95947.48
2024-03-26T16:09:32.789Z,95946.15
2024-03-26T16:12:05.103Z,95946.61
2024-03-26T16:14:33.243Z,95943.04
2024-03-26T16:17:01.434Z,95942.84
2024-03-26T16:19:29.544Z,95943.52
2024-03-26T16:21:57.508Z,95941.96
2024-03-26T16:24:26.387Z,95942.91
2024-03-26T16:26:54.494Z,95946.63
2024-03-26T16:29:22.532Z,95949.73
2024-03-26T16:31:50.635Z,95955.61
2024-03-26T16:34:18.768Z,95958.89
2024-03-26T16:36:47.339Z,95959.52
2024-03-26T16:39:16.862Z,95964.36
2024-03-26T16:41:47.888Z,95962.87
2024-03-26T16:44:17.035Z,95961.86
2024-03-26T16:46:45.149Z,95966.46
2024-03-26T16:49:13.255Z,95970.04
2024-03-26T16:51:41.540Z,95968.14
2024-03-26T16:54:09.836Z,95965.33
2024-03-26T16:56:38.028Z,95961.88
2024-03-26T16:59:06.143Z,95960.63
2024-03-26T17:01:34.255Z,95957.58
2024-03-26T17:04:02.436Z,95957.30
2024-03-26T17:06:30.706Z,95954.45
2024-03-26T17:08:58.978Z,95956.92
2024-03-26T17:11:31.503Z,95959.86
2024-03-26T17:14:01.877Z,95957.14
2024-03-26T17:16:33.564Z,95955.79
2024-03-26T17:19:07.417Z,95950.55
2024-03-26T17:21:35.498Z,95944.42
2024-03-26T17:24:04.133Z,95944.52
2024-03-26T17:26:33.554Z,95947.98
2024-03-26T17:29:02.016Z,95945.10
2024-03-26T17:31:30.316Z,95948.74
2024-03-26T17:33:58.500Z,95949.11
2024-03-26T17:36:26.703Z,95945.51
2024-03-26T17:38:55.575Z,95941.98
2024-03-26T17:41:23.732Z,95939.52
2024-03-26T17:43:52.020Z,95942.04
2024-03-26T17:46:20.260Z,95943.33
2024-03-26T17:48:48.564Z,95948.11
2024-03-26T17:51:16.799Z,95944.84
2024-03-26T17:53:44.959Z,95937.05
2024-03-26T17:56:13.057Z,95941.72
2024-03-26T17:58:41.204Z,95942.11
2024-03-26T18:01:10.613Z,95939.98
2024-03-26T18:03:39.046Z,95946.71
2024-03-26T18:06:07.224Z,95943.20
2024-03-26T18:08:35.485Z,95940.45
2024-03-26T18:11:09.812Z,95941.58
2024-03-26T18:13:37.960Z,95942.19
2024-03-26T18:16:06.921Z,95941.80
2024-03-26T18:18:35.086Z,95942.14
2024-03-26T18:21:07.243Z,95940.55
2024-03-26T18:23:35.780Z,95937.11
2024-03-26T18:26:05.773Z,95940.55
2024-03-26T18:28:35.108Z,95933.39
2024-03-26T18:31:06.854Z,95939.30
2024-03-26T18:33:35.308Z,95944.52
2024-03-26T18:36:05.319Z,95942.50
2024-03-26T18:38:34.956Z,95941.63
2024-03-26T18:41:07.816Z,95941.08
2024-03-26T18:43:37.568Z,95944.06
2024-03-26T18:46:25.288Z,95947.20
2024-03-26T18:48:53.358Z,95948.45
2024-03-26T18:51:21.425Z,95949.33
2024-03-26T18:53:49.662Z,95944.83
2024-03-26T18:56:18.138Z,95939.14
2024-03-26T18:58:46.695Z,95938.73
2024-03-26T19:01:16.492Z,95940.02
2024-03-26T19:03:48.237Z,95940.66
2024-03-26T19:06:17.625Z,95940.42
2024-03-26T19:08:46.107Z,95940.70
2024-03-26T19:11:14.227Z,95941.21
2024-03-26T19:13:42.624Z,95937.05
2024-03-26T19:16:11.018Z,95932.50
2024-03-26T19:18:39.134Z,95932.25
2024-03-26T19:21:08.030Z,95934.37
2024-03-26T19:23:37.091Z,95936.98
2024-03-26T19:26:07.408Z,95949.94
2024-03-26T19:28:36.799Z,95946.64
2024-03-26T19:31:07.836Z,95945.30
2024-03-26T19:33:36.456Z,95945.79
2024-03-26T19:36:10.472Z,95941.40
2024-03-26T19:38:39.250Z,95948.08
2024-03-26T19:41:09.143Z,95949.09
2024-03-26T19:43:40.189Z,95942.46
2024-03-26T19:46:10.167Z,95950.18
2024-03-26T19:48:39.144Z,95948.39
2024-03-26T19:51:08.409Z,95940.20
2024-03-26T19:53:36.832Z,95943.13
2024-03-26T19:56:12.290Z,95940.90
2024-03-26T19:58:43.361Z,95937.66
2024-03-26T20:01:12.273Z,95938.02
2024-03-26T20:03:40.502Z,95934.02
2024-03-26T20:06:13.257Z,95933.35
2024-03-26T20:08:44.622Z,95926.42
2024-03-26T20:11:14.593Z,95926.07
2024-03-26T20:13:42.814Z,95921.73
2024-03-26T20:16:12.322Z,95924.04
2024-03-26T20:18:40.713Z,95923.50
2024-03-26T20:21:08.944Z,95923.01
2024-03-26T20:23:37.587Z,95924.86
2024-03-26T20:26:09.189Z,95919.81
2024-03-26T20:28:38.313Z,95918.38
2024-03-26T20:31:12.434Z,95913.64
2024-03-26T20:33:41.800Z,95917.35
2024-03-26T20:36:16.991Z,95917.63
2024-03-26T20:38:45.216Z,95918.83
2024-03-26T20:41:13.187Z,95911.30
2024-03-26T20:43:41.606Z,95909.40
2024-03-26T20:46:10.236Z,95911.59
2024-03-26T20:48:38.507Z,95912.60
2024-03-26T20:51:10.904Z,95919.41
2024-03-26T20:53:39.777Z,95917.23
2024-03-26T20:56:10.733Z,95921.02
2024-03-26T20:58:38.943Z,95916.48
2024-03-26T21:01:15.676Z,95918.45
2024-03-26T21:03:45.436Z,95924.83
2024-03-26T21:06:13.517Z,95921.77
2024-03-26T21:08:41.612Z,95905.61
2024-03-26T21:11:11.917Z,95903.57
2024-03-26T21:13:40.527Z,95910.27
2024-03-26T21:16:12.036Z,95913.23
2024-03-26T21:18:48.625Z,95916.37
2024-03-26T21:21:21.114Z,95916.98
2024-03-26T21:23:49.527Z,95917.19
2024-03-26T21:26:19.089Z,95910.95
2024-03-26T21:28:47.554Z,95902.55
2024-03-26T21:31:15.628Z,95910.08
2024-03-26T21:33:43.920Z,95911.39
2024-03-26T21:36:13.633Z,95901.73
2024-03-26T21:38:42.198Z,95900.88
2024-03-26T21:41:13.128Z,95904.75
2024-03-26T21:43:41.311Z,95904.17
2024-03-26T21:46:09.322Z,95899.48
2024-03-26T21:48:37.507Z,95895.05
2024-03-26T21:51:06.097Z,95896.02
2024-03-26T21:53:34.207Z,95895.67
2024-03-26T21:56:04.156Z,95895.30
2024-03-26T21:58:32.513Z,95896.09
2024-03-26T22:01:05.475Z,95892.06
2024-03-26T22:03:34.011Z,95892.59
2024-03-26T22:06:02.253Z,95888.77
2024-03-26T22:08:31.704Z,95891.43
2024-03-26T22:11:02.774Z,95885.95
2024-03-26T22:13:31.108Z,95879.64
2024-03-26T22:15:59.331Z,95876.59
2024-03-26T22:18:27.711Z,95885.60
2024-03-26T22:21:00.646Z,95888.48
2024-03-26T22:23:30.387Z,95889.73
2024-03-26T22:26:00.505Z,95882.96
2024-03-26T22:28:28.996Z,95885.98
2024-03-26T22:30:57.427Z,95884.53
2024-03-26T22:33:25.516Z,95888.33
2024-03-26T22:35:53.761Z,95892.50
2024-03-26T22:38:22.075Z,95893.77
2024-03-26T22:40:57.764Z,95891.86
2024-03-26T22:43:26.449Z,95883.71
2024-03-26T22:45:59.218Z,95888.19
2024-03-26T22:48:27.750Z,95881.88
2024-03-26T22:50:57.696Z,95878.43
2024-03-26T22:53:26.122Z,95873.10
2024-03-26T22:56:02.104Z,95871.09
2024-03-26T22:58:30.721Z,95868.86
2024-03-26T23:00:58.845Z,95870.73
2024-03-26T23:03:27.797Z,95875.10
2024-03-26T23:05:59.848Z,95869.42
2024-03-26T23:08:28.208Z,95866.45
2024-03-26T23:10:56.584Z,95866.09
2024-03-26T23:13:25.770Z,95856.55
2024-03-26T23:15:54.028Z,95854.08
2024-03-26T23:18:22.414Z,95851.63
2024-03-26T23:20:50.642Z,95849.86
2024-03-26T23:23:18.929Z,95851.16
2024-03-26T23:25:47.304Z,95852.42
2024-03-26T23:28:16.584Z,95851.14
2024-03-26T23:30:47.173Z,95857.19
2024-03-26T23:33:15.254Z,95851.71
2024-03-26T23:35:46.548Z,95846.00
2024-03-26T23:38:15.397Z,95843.64
2024-03-26T23:40:43.559Z,95849.80
2024-03-26T23:43:11.646Z,95855.20
2024-03-26T23:45:39.641Z,95857.29
2024-03-26T23:48:07.767Z,95856.13
2024-03-26T23:50:35.855Z,95854.08
2024-03-26T23:53:04.219Z,95859.80
2024-03-26T23:55:32.945Z,95860.02
2024-03-26T23:58:01.708Z,95853.83
